VR2R-13 Weather Reports


Display with metric or nautical units.
time (UTC)temp
F
wind
direction
speed
MPH
gust
MPH
rain 1hr
in
rain 24hr
in
rain mn
in
humidity
%
barometer
mb
20190222130551 59 20 3.0 4.0 0.00 0.00 0.00 99 916.4
20190222130051 59 25 3.0 5.0 0.00 0.00 0.00 99 916.4
20190222125551 59 38 4.0 5.0 0.00 0.00 0.00 99 916.4
20190222125051 59 29 2.0 3.0 0.00 0.00 0.00 99 916.4
20190222124551 59 42 2.0 5.0 0.00 0.00 0.00 99 916.3
20190222124052 59 47 3.0 5.0 0.00 0.00 0.00 99 916.4
20190222123551 59 59 4.0 4.0 0.00 0.00 0.00 99 916.4
20190222123051 59 85 3.0 3.0 0.00 0.00 0.00 99 916.4
20190222122551 59 74 1.0 3.0 0.00 0.00 0.00 99 916.4
20190222122051 59 359 1.0 3.0 0.00 0.00 0.00 99 916.4
20190222121551 59 261 1.0 2.0 0.00 0.00 0.00 99 916.3
20190222121051 59 290 0.0 2.0 0.00 0.00 0.00 99 916.3
20190222120551 59 215 0.0 4.0 0.00 0.00 0.00 99 916.2
20190222120051 59 102 2.0 4.0 0.00 0.00 0.00 99 916.1
20190222115551 59 59 0.0 2.0 0.00 0.00 0.00 99 916.0
20190222115051 59 44 1.0 2.0 0.00 0.00 0.00 99 915.9
20190222114551 59 355 1.0 3.0 0.00 0.00 0.00 99 915.9
20190222114051 59 52 2.0 4.0 0.00 0.00 0.00 99 915.8
20190222113551 59 33 2.0 5.0 0.00 0.00 0.00 99 915.8
20190222113052 59 62 4.0 5.0 0.00 0.00 0.00 99 915.7
20190222112551 59 74 4.0 5.0 0.00 0.00 0.00 99 915.7
20190222112051 59 65 3.0 5.0 0.00 0.00 0.00 99 915.7
20190222111551 59 64 4.0 5.0 0.00 0.00 0.00 99 915.7
20190222111051 59 86 3.0 5.0 0.00 0.00 0.00 99 915.8
20190222110551 59 63 4.0 5.0 0.00 0.00 0.00 99 915.7
20190222110052 59 73 3.0 4.0 0.00 0.00 0.00 99 915.7
20190222105551 60 90 1.0 2.0 0.00 0.00 0.00 99 915.7
20190222105051 60 19 1.0 3.0 0.00 0.00 0.00 99 915.6
20190222104551 59 28 1.0 3.0 0.00 0.00 0.00 99 915.6
20190222104051 60 28 2.0 4.0 0.00 0.00 0.00 99 915.6
20190222103551 60 46 3.0 4.0 0.00 0.00 0.00 99 915.5
20190222103051 60 45 3.0 4.0 0.00 0.00 0.00 98 915.5
20190222102551 60 65 2.0 4.0 0.00 0.00 0.00 98 915.5
20190222102051 60 29 2.0 4.0 0.00 0.00 0.00 98 915.6
20190222101551 60 360 2.0 5.0 0.00 0.00 0.00 97 915.6
20190222101051 60 37 3.0 5.0 0.00 0.00 0.00 97 915.6
20190222100051 60 20 2.0 3.0 0.00 0.00 0.00 97 915.6
20190222095551 60 19 1.0 4.0 0.00 0.00 0.00 97 915.5
20190222095051 60 18 1.0 4.0 0.00 0.00 0.00 97 915.5
20190222094551 60 85 3.0 5.0 0.00 0.00 0.00 98 915.4
20190222094051 60 54 3.0 5.0 0.00 0.00 0.00 97 915.4
20190222093551 60 72 0.0 4.0 0.00 0.00 0.00 98 915.4
20190222093051 61 56 3.0 5.0 0.00 0.00 0.00 96 915.4
20190222092050 61 27 2.0 4.0 0.00 0.00 0.00 96 915.3
20190222091551 61 27 1.0 4.0 0.00 0.00 0.00 97 915.2
20190222091051 61 44 2.0 4.0 0.00 0.00 0.00 97 915.2
20190222090550 61 61 2.0 4.0 0.00 0.00 0.00 97 915.2
20190222090051 61 28 1.0 4.0 0.00 0.00 0.00 97 915.2
20190222085550 61 57 2.0 5.0 0.00 0.00 0.00 96 915.2
20190222085050 62 76 2.0 5.0 0.00 0.00 0.00 96 915.1
20190222084550 62 97 1.0 5.0 0.00 0.00 0.00 97 915.1
20190222084050 62 82 2.0 5.0 0.00 0.00 0.00 96 915.1
20190222083552 62 46 1.0 4.0 0.00 0.00 0.00 97 915.0
20190222083052 62 88 2.0 4.0 0.00 0.00 0.00 96 915.1
20190222082550 62 159 1.0 4.0 0.00 0.00 0.00 96 915.1
20190222082051 63 89 1.0 4.0 0.00 0.00 0.00 96 915.0
20190222081550 63 139 3.0 4.0 0.00 0.00 0.00 95 915.0
20190222081050 63 134 1.0 4.0 0.00 0.00 0.00 95 915.1
20190222080550 63 147 2.0 4.0 0.00 0.00 0.00 95 915.1
20190222080051 63 71 0.0 4.0 0.00 0.00 0.00 95 915.1
20190222075551 64 125 2.0 4.0 0.00 0.00 0.00 94 915.0
20190222075050 64 260 1.0 5.0 0.00 0.00 0.00 94 915.0
20190222074550 64 123 2.0 5.0 0.00 0.00 0.00 93 915.0
20190222073550 63 245 0.0 2.0 0.00 0.00 0.00 96 915.1
20190222073050 62 282 0.0 3.0 0.00 0.00 0.00 96 915.1
20190222072550 63 260 3.0 6.0 0.00 0.00 0.00 95 914.9
20190222072051 64 221 3.0 6.0 0.00 0.00 0.00 94 915.0
20190222071550 64 258 4.0 5.0 0.00 0.00 0.00 93 914.9
20190222071050 64 269 2.0 6.0 0.00 0.00 0.00 94 915.0
20190222070550 65 153 3.0 6.0 0.00 0.00 0.00 92 915.0
20190222070050 64 276 2.0 6.0 0.00 0.00 0.00 93 915.1
20190222065550 65 244 1.0 8.0 0.00 0.00 0.00 92 915.1
20190222065050 66 232 4.0 8.0 0.00 0.00 0.00 90 915.2
20190222064550 66 174 3.0 6.0 0.00 0.00 0.00 92 915.1
20190222064050 65 162 3.0 7.0 0.00 0.00 0.00 92 915.2
20190222063550 65 150 4.0 7.0 0.00 0.00 0.00 91 915.2
20190222063050 64 151 3.0 10.0 0.00 0.00 0.00 93 915.2
20190222062550 65 91 4.0 10.0 0.00 0.00 0.00 91 915.2
20190222062051 66 94 4.0 9.0 0.00 0.00 0.00 92 915.3
20190222061551 66 95 5.0 9.0 0.00 0.00 0.00 90 915.3
20190222061050 66 120 5.0 10.0 0.00 0.00 0.00 91 915.3
20190222060550 66 81 6.0 10.0 0.00 0.00 0.00 89 915.4
20190222060050 69 143 4.0 8.0 0.00 0.00 0.00 86 915.4
20190222055550 68 164 4.0 9.0 0.00 0.00 0.00 88 915.4
20190222054550 69 163 6.0 11.0 0.00 0.00 0.00 88 915.5
20190222054050 68 99 5.0 10.0 0.00 0.00 0.00 88 915.5
20190222053550 69 112 6.0 9.0 0.00 0.00 0.00 89 915.6
20190222053050 68 162 5.0 9.0 0.00 0.00 0.00 88 915.7
20190222052550 68 180 4.0 7.0 0.00 0.00 0.00 90 915.7
20190222051551 67 81 5.0 9.0 0.00 0.00 0.00 92 915.8
20190222051050 67 143 5.0 10.0 0.00 0.00 0.00 91 915.9
20190222050550 67 183 6.0 10.0 0.00 0.00 0.00 92 915.9
20190222050050 67 131 8.0 10.0 0.00 0.00 0.00 92 916.0
20190222045550 67 136 5.0 7.0 0.00 0.00 0.00 95 916.1
20190222045050 67 117 5.0 7.0 0.00 0.00 0.00 93 916.2
20190222044550 68 130 3.0 7.0 0.00 0.00 0.00 95 916.2
20190222044051 68 182 3.0 7.0 0.00 0.00 0.00 95 916.3
20190222043550 69 198 2.0 7.0 0.00 0.00 0.00 96 916.4
20190222043050 69 236 2.0 7.0 0.00 0.00 0.00 97 916.4
20190222042550 68 161 2.0 6.0 0.00 0.00 0.00 98 916.6
20190222042050 67 136 3.0 6.0 0.00 0.00 0.00 99 916.5
20190222041550 66 58 1.0 6.0 0.00 0.00 0.00 97 916.6
20190222041050 68 139 3.0 5.0 0.00 0.00 0.00 97 916.6
20190222040549 69 136 2.0 8.0 0.00 0.00 0.00 96 916.7
20190222040050 69 247 2.0 8.0 0.00 0.00 0.00 99 916.8
20190222035549 67 89 2.0 5.0 0.00 0.00 0.00 99 916.8
20190222035050 67 167 1.0 10.0 0.00 0.00 0.00 98 917.0
20190222034550 68 278 2.0 10.0 0.00 0.00 0.00 99 917.0
20190222034049 68 6 1.0 8.0 0.00 0.00 0.00 99 916.9
20190222033549 67 243 3.0 8.0 0.00 0.00 0.00 98 917.0
20190222033049 67 253 3.0 8.0 0.00 0.00 0.00 98 917.1
20190222032549 67 285 3.0 8.0 0.00 0.00 0.00 98 917.2
20190222032049 67 190 2.0 7.0 0.00 0.00 0.00 99 917.3
20190222031550 67 115 2.0 5.0 0.00 0.00 0.00 99 917.5
20190222031050 66 315 2.0 7.0 0.00 0.00 0.00 99 917.5
20190222030549 66 106 2.0 7.0 0.00 0.00 0.00 99 917.5
20190222030049 66 284 2.0 9.0 0.00 0.00 0.00 99 917.6
20190222025549 66 200 2.0 9.0 0.00 0.00 0.00 99 917.6
20190222025049 66 262 3.0 7.0 0.00 0.00 0.00 99 917.7
20190222024549 65 95 1.0 4.0 0.00 0.00 0.00 99 917.7
20190222024050 65 121 2.0 4.0 0.00 0.00 0.00 99 917.8
20190222023549 65 329 2.0 6.0 0.00 0.01 0.00 99 917.9
20190222023049 64 156 1.0 6.0 0.00 0.01 0.00 99 917.9
20190222022549 64 32 2.0 6.0 0.00 0.01 0.00 99 918.0
20190222022049 63 10 2.0 6.0 0.00 0.01 0.00 99 918.1
20190222021549 63 46 3.0 6.0 0.00 0.01 0.00 99 918.1
20190222021049 63 42 3.0 7.0 0.00 0.01 0.00 99 918.1
20190222020549 62 8 3.0 9.0 0.00 0.01 0.00 99 918.0
20190222020049 62 345 7.0 9.0 0.00 0.01 0.00 99 918.0
20190222015550 62 360 5.0 8.0 0.00 0.01 0.00 99 918.0
20190222015049 63 352 5.0 9.0 0.00 0.01 0.00 99 917.9
20190222014549 63 25 5.0 9.0 0.00 0.01 0.00 99 917.9
20190222014049 62 357 6.0 8.0 0.00 0.01 0.00 99 917.9
20190222013549 62 38 6.0 8.0 0.00 0.01 0.00 99 917.8
20190222013049 62 26 5.0 8.0 0.00 0.01 0.00 99 917.8
20190222012549 62 19 6.0 9.0 0.00 0.01 0.00 99 917.7
20190222012049 62 6 6.0 9.0 0.00 0.01 0.00 99 917.6
20190222011549 62 25 6.0 9.0 0.00 0.01 0.00 99 917.5
20190222011049 62 26 5.0 9.0 0.01 0.01 0.00 99 917.5
20190222010549 62 45 5.0 10.0 0.01 0.01 0.00 99 917.6
20190222010049 62 360 8.0 10.0 0.01 0.01 0.00 99 917.5
20190222005549 62 360 4.0 11.0 0.01 0.01 0.00 99 917.6
20190222005049 62 2 6.0 11.0 0.01 0.01 0.00 99 917.4
20190222004549 62 12 8.0 13.0 0.01 0.01 0.00 99 917.3
20190222004049 62 360 9.0 13.0 0.01 0.01 0.00 99 917.5
20190222003549 61 13 9.0 13.0 0.01 0.01 0.00 99 917.3
20190222002550 61 351 10.0 13.0 0.01 0.01 0.00 99 917.2
20190222002049 62 13 9.0 13.0 0.01 0.01 0.00 99 917.0
20190222001049 61 25 10.0 12.0 0.00 0.00 0.00 99 917.1
20190222000549 61 19 10.0 13.0 0.00 0.00 0.00 99 917.1
20190222000049 61 14 11.0 13.0 0.00 0.00 0.00 99 917.1
20190221235549 61 12 8.0 13.0 0.00 0.00 0.00 99 917.0
20190221235049 61 1 9.0 13.0 0.00 0.00 0.00 99 917.0
20190221234549 61 6 9.0 13.0 0.00 0.00 0.00 99 916.9
20190221234049 61 20 10.0 13.0 0.00 0.00 0.00 99 916.9
20190221233549 61 17 9.0 13.0 0.00 0.00 0.00 99 916.9
20190221233049 61 360 10.0 13.0 0.00 0.00 0.00 99 916.9
20190221232549 61 10 8.0 12.0 0.00 0.00 0.00 99 916.8
20190221232048 61 29 8.0 12.0 0.00 0.00 0.00 99 916.7
20190221231549 61 2 7.0 11.0 0.00 0.00 0.00 99 916.6
20190221230549 61 355 7.0 11.0 0.00 0.00 0.00 99 916.6
20190221230049 61 6 7.0 11.0 0.00 0.00 0.00 99 916.5
20190221225549 61 3 8.0 10.0 0.00 0.00 0.00 99 916.5
20190221225049 61 360 8.0 11.0 0.00 0.00 0.00 99 916.5
20190221224549 61 356 7.0 11.0 0.00 0.00 0.00 99 916.4
20190221224048 62 360 8.0 10.0 0.00 0.00 0.00 99 916.5
20190221223548 61 360 8.0 13.0 0.00 0.00 0.00 99 916.4
20190221223049 61 3 8.0 13.0 0.00 0.00 0.00 99 916.4
20190221222549 61 15 9.0 12.0 0.00 0.00 0.00 99 916.4
20190221222048 62 360 8.0 12.0 0.00 0.00 0.00 99 916.3
20190221221548 61 21 8.0 11.0 0.00 0.00 0.00 99 916.3
20190221221048 61 11 9.0 13.0 0.00 0.00 0.00 99 916.3
20190221220549 61 342 8.0 13.0 0.00 0.00 0.00 99 916.3
20190221220048 61 360 9.0 12.0 0.00 0.00 0.00 99 916.2
20190221215548 61 348 8.0 12.0 0.00 0.00 0.00 99 916.1
20190221215048 61 334 8.0 12.0 0.00 0.00 0.00 99 916.0
20190221214549 61 360 8.0 12.0 0.00 0.00 0.00 99 915.9
20190221214049 62 354 7.0 11.0 0.00 0.00 0.00 99 915.9
20190221213548 61 19 8.0 11.0 0.00 0.00 0.00 99 915.9
20190221213049 61 19 8.0 11.0 0.00 0.00 0.00 99 915.9
20190221212549 61 6 8.0 11.0 0.00 0.00 0.00 99 915.8
20190221212048 62 6 7.0 11.0 0.00 0.00 0.00 99 915.8
20190221211548 62 9 4.0 9.0 0.00 0.00 0.00 99 915.8
20190221211048 62 331 5.0 9.0 0.00 0.00 0.00 99 915.8
20190221210549 62 358 5.0 9.0 0.00 0.00 0.00 99 915.7
20190221210219 62 355 4.0 7.0 0.00 0.00 0.00 99 915.7
20190221210048 62 355 4.0 7.0 0.00 0.00 0.00 99 915.7
20190221205549 62 9 4.0 8.0 0.00 0.00 0.00 99 915.6
20190221205048 63 360 5.0 8.0 0.00 0.00 0.00 99 915.8
20190221204548 63 18 5.0 7.0 0.00 0.00 0.00 99 915.7
20190221204048 63 360 4.0 5.0 0.00 0.00 0.00 99 915.7
20190221203548 63 16 3.0 8.0 0.00 0.00 0.00 99 915.8
20190221203048 63 4 5.0 8.0 0.00 0.00 0.00 99 915.8
20190221202548 63 10 4.0 6.0 0.00 0.00 0.00 99 915.7
20190221202048 63 1 3.0 5.0 0.00 0.00 0.00 99 915.9
20190221201548 63 333 4.0 5.0 0.00 0.00 0.00 99 915.8
20190221201048 63 359 2.0 2.0 0.00 0.00 0.00 99 915.8
20190221200548 63 348 0.0 4.0 0.00 0.00 0.00 99 915.8
20190221200048 63 311 2.0 5.0 0.00 0.00 0.00 99 915.9
20190221195548 63 353 2.0 5.0 0.00 0.00 0.00 99 915.9
20190221195048 63 147 1.0 4.0 0.00 0.00 0.00 99 915.8
20190221194548 63 249 0.0 4.0 0.00 0.00 0.00 99 915.9
20190221194048 63 339 3.0 5.0 0.00 0.00 0.00 99 915.9
20190221193550 63 301 2.0 6.0 0.00 0.00 0.00 99 915.9
20190221193048 63 292 3.0 6.0 0.00 0.00 0.00 99 915.9
20190221192549 63 284 3.0 6.0 0.00 0.00 0.00 99 915.9
20190221192048 63 360 2.0 6.0 0.00 0.00 0.00 99 915.8
20190221191548 63 349 2.0 4.0 0.00 0.00 0.00 99 915.8
20190221191048 63 316 2.0 4.0 0.00 0.00 0.00 99 915.8
20190221190548 63 318 3.0 4.0 0.00 0.00 0.00 99 915.9
20190221190048 63 349 2.0 4.0 0.00 0.00 0.00 99 915.9
20190221185549 63 319 1.0 3.0 0.00 0.00 0.00 99 915.9
20190221185048 63 308 1.0 2.0 0.00 0.00 0.00 99 915.9
20190221184548 64 264 1.0 2.0 0.00 0.00 0.00 99 915.9
20190221184048 63 256 1.0 3.0 0.00 0.00 0.00 99 915.8
20190221183548 63 220 1.0 3.0 0.00 0.00 0.00 99 915.9
20190221183048 63 238 2.0 4.0 0.00 0.00 0.00 99 915.9
20190221182548 63 256 3.0 4.0 0.00 0.00 0.00 99 916.0
20190221182048 63 224 2.0 5.0 0.00 0.00 0.00 99 916.1
20190221181548 63 271 3.0 5.0 0.00 0.00 0.00 99 916.1
20190221181048 63 262 3.0 6.0 0.00 0.00 0.00 99 916.1
20190221180548 63 249 4.0 6.0 0.00 0.00 0.00 99 916.2
20190221180048 63 273 2.0 5.0 0.00 0.00 0.00 99 916.2
20190221175548 63 258 3.0 5.0 0.00 0.00 0.00 99 916.3
20190221175048 63 261 3.0 5.0 0.00 0.00 0.00 99 916.3
20190221174548 63 260 3.0 5.0 0.00 0.00 0.00 99 916.3
20190221174048 63 263 3.0 5.0 0.00 0.00 0.00 99 916.3
20190221173548 63 271 3.0 6.0 0.00 0.00 0.00 99 916.4
20190221173048 63 245 4.0 7.0 0.00 0.00 0.00 99 916.5
20190221172548 63 223 4.0 7.0 0.00 0.00 0.00 99 916.5
20190221172047 64 260 4.0 7.0 0.00 0.00 0.00 99 916.4
20190221171548 64 271 5.0 7.0 0.00 0.00 0.00 99 916.6
20190221171048 64 245 4.0 10.0 0.00 0.00 0.00 99 916.5
20190221170547 64 260 4.0 10.0 0.00 0.00 0.00 99 916.7
20190221170048 64 264 5.0 9.0 0.00 0.00 0.00 99 916.7
20190221165547 64 250 5.0 8.0 0.00 0.00 0.00 99 916.7
20190221165047 64 265 5.0 8.0 0.00 0.00 0.00 99 916.7
20190221164548 64 240 4.0 8.0 0.00 0.00 0.00 99 916.8
20190221164048 64 263 5.0 11.0 0.00 0.00 0.00 99 916.8
20190221163547 64 267 5.0 11.0 0.00 0.00 0.00 99 916.8
20190221163047 64 261 6.0 10.0 0.00 0.00 0.00 99 916.8
20190221162548 64 271 6.0 10.0 0.00 0.00 0.00 99 916.9
20190221162047 64 258 7.0 10.0 0.00 0.00 0.00 99 916.8
20190221161547 64 238 6.0 12.0 0.00 0.00 0.00 99 916.9
20190221161047 63 251 7.0 14.0 0.00 0.00 0.00 99 916.9
20190221160547 63 257 11.0 14.0 0.00 0.00 0.00 99 916.7
20190221160047 63 281 4.0 8.0 0.00 0.00 0.00 99 917.0
20190221155547 64 303 3.0 10.0 0.00 0.00 0.00 99 917.1
20190221155047 64 259 4.0 11.0 0.00 0.00 0.00 99 917.2
20190221154547 64 269 7.0 13.0 0.00 0.00 0.00 99 917.0
20190221154048 64 251 8.0 13.0 0.00 0.00 0.00 99 917.0
20190221153547 64 232 9.0 16.0 0.00 0.00 0.00 99 917.0
20190221153048 64 245 9.0 16.0 0.00 0.00 0.00 99 917.0
20190221152548 64 221 9.0 15.0 0.00 0.00 0.00 99 916.8
20190221152047 64 238 10.0 16.0 0.00 0.00 0.00 99 916.9
20190221151547 64 232 11.0 16.0 0.00 0.00 0.00 99 917.0
20190221151047 63 227 11.0 15.0 0.00 0.00 0.00 99 916.9
20190221145548 63 263 2.0 11.0 0.00 0.00 0.00 99 916.8
20190221145047 63 231 9.0 16.0 0.00 0.00 0.00 99 916.9
20190221144548 63 220 10.0 16.0 0.00 0.00 0.00 99 916.9
20190221144047 63 249 10.0 14.0 0.00 0.00 0.00 99 917.0
20190221143547 63 219 11.0 16.0 0.00 0.00 0.00 99 917.0
20190221142547 63 244 9.0 14.0 0.00 0.00 0.00 99 917.3
20190221142047 63 223 10.0 14.0 0.00 0.00 0.00 99 917.1
20190221141547 63 272 10.0 14.0 0.00 0.00 0.00 99 917.0
20190221141047 63 259 8.0 16.0 0.00 0.00 0.00 99 917.0
20190221140547 63 229 8.0 16.0 0.00 0.00 0.00 99 917.0
20190221135547 64 276 9.0 16.0 0.00 0.00 0.00 99 917.0
20190221135047 63 239 6.0 13.0 0.00 0.00 0.00 99 917.0
20190221134547 63 230 7.0 10.0 0.00 0.00 0.00 99 917.1
20190221134047 63 185 6.0 9.0 0.00 0.00 0.00 99 917.2
20190221133547 64 213 5.0 10.0 0.00 0.00 0.00 99 916.9
20190221133047 64 232 8.0 13.0 0.00 0.00 0.00 99 916.8
20190221132547 64 205 8.0 14.0 0.00 0.00 0.00 99 916.8
20190221132047 63 189 6.0 14.0 0.00 0.00 0.00 99 916.4
20190221131547 63 228 9.0 12.0 0.00 0.00 0.00 99 916.6
20190221131047 63 211 1.0 6.0 0.00 0.00 0.00 99 916.7